sensor_id;sensor_type;location;lat;lon;timestamp;pressure;altitude;pressure_sealevel;temperature;humidity
52469;BME280;38381;53.688;10.776;2023-07-22T00:03:20;100728.25;;;13.89;88.50
52469;BME280;38381;53.688;10.776;2023-07-22T00:08:21;100727.41;;;13.84;88.30
52469;BME280;38381;53.688;10.776;2023-07-22T00:13:23;100727.53;;;13.67;89.01
52469;BME280;38381;53.688;10.776;2023-07-22T00:18:23;100727.56;;;13.62;89.67
52469;BME280;38381;53.688;10.776;2023-07-22T00:23:24;100730.09;;;13.73;88.96
52469;BME280;38381;53.688;10.776;2023-07-22T00:28:24;100725.00;;;13.56;89.86
52469;BME280;38381;53.688;10.776;2023-07-22T00:33:25;100730.19;;;13.61;89.97
52469;BME280;38381;53.688;10.776;2023-07-22T00:38:26;100725.00;;;13.58;89.95
52469;BME280;38381;53.688;10.776;2023-07-22T00:43:27;100724.97;;;13.64;89.73
52469;BME280;38381;53.688;10.776;2023-07-22T00:48:28;100722.34;;;13.62;90.45
52469;BME280;38381;53.688;10.776;2023-07-22T00:53:28;100726.75;;;13.56;90.27
52469;BME280;38381;53.688;10.776;2023-07-22T00:58:29;100723.22;;;13.66;89.77
52469;BME280;38381;53.688;10.776;2023-07-22T01:03:29;100718.84;;;13.66;89.55
52469;BME280;38381;53.688;10.776;2023-07-22T01:08:30;100716.34;;;13.53;90.63
52469;BME280;38381;53.688;10.776;2023-07-22T01:13:30;100718.19;;;13.31;91.92
52469;BME280;38381;53.688;10.776;2023-07-22T01:18:32;100725.91;;;13.52;90.59
52469;BME280;38381;53.688;10.776;2023-07-22T01:23:33;100718.13;;;13.47;90.44
52469;BME280;38381;53.688;10.776;2023-07-22T01:28:36;100719.78;;;13.55;90.33
52469;BME280;38381;53.688;10.776;2023-07-22T01:33:36;100716.44;;;13.37;90.93
52469;BME280;38381;53.688;10.776;2023-07-22T01:38:38;100709.50;;;13.39;90.06
52469;BME280;38381;53.688;10.776;2023-07-22T01:43:38;100708.63;;;13.26;90.99
52469;BME280;38381;53.688;10.776;2023-07-22T01:48:38;100706.06;;;13.31;90.34
52469;BME280;38381;53.688;10.776;2023-07-22T01:53:39;100709.53;;;13.22;90.76
52469;BME280;38381;53.688;10.776;2023-07-22T01:58:39;100706.06;;;13.22;90.64
52469;BME280;38381;53.688;10.776;2023-07-22T02:03:40;100712.13;;;13.22;91.15
52469;BME280;38381;53.688;10.776;2023-07-22T02:08:40;100717.38;;;13.18;90.70
52469;BME280;38381;53.688;10.776;2023-07-22T02:13:40;100713.91;;;13.19;90.83
52469;BME280;38381;53.688;10.776;2023-07-22T02:18:41;100716.56;;;13.06;90.86
52469;BME280;38381;53.688;10.776;2023-07-22T02:23:42;100716.50;;;13.14;90.37
52469;BME280;38381;53.688;10.776;2023-07-22T02:28:42;100719.16;;;13.13;90.73
52469;BME280;38381;53.688;10.776;2023-07-22T02:33:43;100714.84;;;13.02;91.03
52469;BME280;38381;53.688;10.776;2023-07-22T02:38:43;100723.53;;;13.01;91.11
52469;BME280;38381;53.688;10.776;2023-07-22T02:43:44;100727.06;;;12.88;91.86
52469;BME280;38381;53.688;10.776;2023-07-22T02:48:44;100726.16;;;12.89;91.27
52469;BME280;38381;53.688;10.776;2023-07-22T02:53:44;100730.50;;;12.85;91.75
52469;BME280;38381;53.688;10.776;2023-07-22T02:58:46;100733.97;;;12.98;91.33
52469;BME280;38381;53.688;10.776;2023-07-22T03:03:48;100735.69;;;12.93;91.55
52469;BME280;38381;53.688;10.776;2023-07-22T03:08:48;100725.34;;;12.84;91.68
52469;BME280;38381;53.688;10.776;2023-07-22T03:13:49;100727.06;;;12.82;91.97
52469;BME280;38381;53.688;10.776;2023-07-22T03:18:49;100738.38;;;12.76;91.85
52469;BME280;38381;53.688;10.776;2023-07-22T03:23:49;100732.31;;;12.66;92.88
52469;BME280;38381;53.688;10.776;2023-07-22T03:28:51;100740.09;;;12.79;91.87
52469;BME280;38381;53.688;10.776;2023-07-22T03:33:51;100744.47;;;12.66;92.00
52469;BME280;38381;53.688;10.776;2023-07-22T03:38:52;100742.69;;;12.82;91.04
52469;BME280;38381;53.688;10.776;2023-07-22T03:43:52;100751.38;;;12.73;90.82
52469;BME280;38381;53.688;10.776;2023-07-22T03:48:53;100747.94;;;12.60;92.04
52469;BME280;38381;53.688;10.776;2023-07-22T03:53:54;100746.22;;;12.65;90.98
52469;BME280;38381;53.688;10.776;2023-07-22T03:58:54;100747.06;;;12.67;90.98
52469;BME280;38381;53.688;10.776;2023-07-22T04:03:55;100742.69;;;12.71;91.30
52469;BME280;38381;53.688;10.776;2023-07-22T04:08:55;100744.47;;;12.66;91.14
52469;BME280;38381;53.688;10.776;2023-07-22T04:13:55;100745.31;;;12.66;91.63
52469;BME280;38381;53.688;10.776;2023-07-22T04:18:56;100737.50;;;12.76;92.11
52469;BME280;38381;53.688;10.776;2023-07-22T04:23:56;100740.09;;;12.76;91.94
52469;BME280;38381;53.688;10.776;2023-07-22T04:28:57;100753.97;;;12.84;91.59
52469;BME280;38381;53.688;10.776;2023-07-22T04:33:57;100748.75;;;12.90;91.93
52469;BME280;38381;53.688;10.776;2023-07-22T04:38:57;100761.75;;;12.96;91.43
52469;BME280;38381;53.688;10.776;2023-07-22T04:43:58;100775.59;;;13.01;91.69
52469;BME280;38381;53.688;10.776;2023-07-22T04:48:58;100783.44;;;12.98;92.17
52469;BME280;38381;53.688;10.776;2023-07-22T04:53:59;100791.19;;;13.11;92.00
52469;BME280;38381;53.688;10.776;2023-07-22T04:58:59;100798.16;;;13.08;92.18
52469;BME280;38381;53.688;10.776;2023-07-22T05:04:00;100796.34;;;13.23;91.78
52469;BME280;38381;53.688;10.776;2023-07-22T05:09:00;100788.53;;;13.20;92.58
52469;BME280;38381;53.688;10.776;2023-07-22T05:14:00;100788.56;;;13.14;92.49
52469;BME280;38381;53.688;10.776;2023-07-22T05:19:01;100792.84;;;13.36;91.93
52469;BME280;38381;53.688;10.776;2023-07-22T05:24:01;100809.31;;;13.43;91.69
52469;BME280;38381;53.688;10.776;2023-07-22T05:29:02;100803.22;;;13.52;90.77
52469;BME280;38381;53.688;10.776;2023-07-22T05:34:02;100812.66;;;13.74;91.20
52469;BME280;38381;53.688;10.776;2023-07-22T05:39:04;100814.34;;;13.77;90.02
52469;BME280;38381;53.688;10.776;2023-07-22T05:44:04;100825.56;;;13.89;89.50
52469;BME280;38381;53.688;10.776;2023-07-22T05:49:04;100817.72;;;13.94;88.96
52469;BME280;38381;53.688;10.776;2023-07-22T05:54:05;100824.63;;;14.01;90.02
52469;BME280;38381;53.688;10.776;2023-07-22T05:59:05;100830.75;;;13.99;88.64
52469;BME280;38381;53.688;10.776;2023-07-22T06:04:06;100835.06;;;14.01;88.10
52469;BME280;38381;53.688;10.776;2023-07-22T06:09:06;100837.59;;;14.15;87.75
52469;BME280;38381;53.688;10.776;2023-07-22T06:14:07;100839.19;;;14.32;87.55
52469;BME280;38381;53.688;10.776;2023-07-22T06:19:08;100843.13;;;14.85;85.71
52469;BME280;38381;53.688;10.776;2023-07-22T06:24:08;100849.00;;;15.04;85.35
52469;BME280;38381;53.688;10.776;2023-07-22T06:29:09;100841.50;;;15.51;83.34
52469;BME280;38381;53.688;10.776;2023-07-22T06:34:09;100839.00;;;15.40;81.70
52469;BME280;38381;53.688;10.776;2023-07-22T06:39:10;100845.16;;;15.37;83.01
52469;BME280;38381;53.688;10.776;2023-07-22T06:44:10;100858.81;;;15.61;81.52
52469;BME280;38381;53.688;10.776;2023-07-22T06:49:10;100856.00;;;15.76;81.31
52469;BME280;38381;53.688;10.776;2023-07-22T06:54:11;100857.00;;;15.64;80.71
52469;BME280;38381;53.688;10.776;2023-07-22T06:59:11;100856.69;;;15.91;80.49
52469;BME280;38381;53.688;10.776;2023-07-22T07:04:12;100859.66;;;16.26;79.06
52469;BME280;38381;53.688;10.776;2023-07-22T07:09:12;100868.75;;;16.01;80.27
52469;BME280;38381;53.688;10.776;2023-07-22T07:14:12;100864.44;;;16.54;79.03
52469;BME280;38381;53.688;10.776;2023-07-22T07:19:13;100862.69;;;17.06;75.80
52469;BME280;38381;53.688;10.776;2023-07-22T07:24:13;100870.97;;;16.27;76.28
52469;BME280;38381;53.688;10.776;2023-07-22T07:29:14;100871.03;;;16.78;75.94
52469;BME280;38381;53.688;10.776;2023-07-22T07:34:15;100868.59;;;17.17;74.30
52469;BME280;38381;53.688;10.776;2023-07-22T07:39:15;100864.78;;;16.87;73.13
52469;BME280;38381;53.688;10.776;2023-07-22T07:44:15;100871.13;;;17.20;73.10
52469;BME280;38381;53.688;10.776;2023-07-22T07:49:17;100875.78;;;17.51;72.61
52469;BME280;38381;53.688;10.776;2023-07-22T07:54:18;100887.41;;;17.83;70.96
52469;BME280;38381;53.688;10.776;2023-07-22T07:59:18;100883.63;;;17.53;70.85
52469;BME280;38381;53.688;10.776;2023-07-22T08:04:19;100887.47;;;17.35;67.76
52469;BME280;38381;53.688;10.776;2023-07-22T08:09:19;100893.16;;;17.12;69.95
52469;BME280;38381;53.688;10.776;2023-07-22T08:14:20;100900.19;;;17.55;69.25
52469;BME280;38381;53.688;10.776;2023-07-22T08:19:20;100897.28;;;17.68;67.38
52469;BME280;38381;53.688;10.776;2023-07-22T08:24:20;100888.59;;;17.65;66.00
52469;BME280;38381;53.688;10.776;2023-07-22T08:29:21;100897.47;;;17.59;67.31
52469;BME280;38381;53.688;10.776;2023-07-22T08:34:21;100889.00;;;17.46;66.64
52469;BME280;38381;53.688;10.776;2023-07-22T08:39:22;100892.53;;;17.45;68.10
52469;BME280;38381;53.688;10.776;2023-07-22T08:44:25;100897.69;;;17.48;68.08
52469;BME280;38381;53.688;10.776;2023-07-22T08:49:27;100900.31;;;17.92;66.52
52469;BME280;38381;53.688;10.776;2023-07-22T08:54:29;100902.75;;;18.01;63.06
52469;BME280;38381;53.688;10.776;2023-07-22T08:59:30;100886.56;;;18.20;62.48
52469;BME280;38381;53.688;10.776;2023-07-22T09:04:31;100888.50;;;18.49;63.55
52469;BME280;38381;53.688;10.776;2023-07-22T09:09:33;100898.84;;;18.57;61.31
52469;BME280;38381;53.688;10.776;2023-07-22T09:14:35;100893.75;;;18.49;61.05
52469;BME280;38381;53.688;10.776;2023-07-22T09:19:35;100885.19;;;18.77;59.80
52469;BME280;38381;53.688;10.776;2023-07-22T09:24:36;100895.34;;;18.92;60.45
52469;BME280;38381;53.688;10.776;2023-07-22T09:29:38;100902.53;;;18.85;61.09
52469;BME280;38381;53.688;10.776;2023-07-22T09:34:54;100893.47;;;18.61;61.97
52469;BME280;38381;53.688;10.776;2023-07-22T09:39:55;100889.63;;;18.01;63.30
52469;BME280;38381;53.688;10.776;2023-07-22T09:44:55;100893.91;;;18.43;62.88
52469;BME280;38381;53.688;10.776;2023-07-22T09:49:55;100896.69;;;18.37;62.20
52469;BME280;38381;53.688;10.776;2023-07-22T09:54:58;100896.63;;;18.40;61.05
52469;BME280;38381;53.688;10.776;2023-07-22T09:59:59;100895.19;;;18.62;59.10
52469;BME280;38381;53.688;10.776;2023-07-22T10:05:02;100897.28;;;18.85;59.72
52469;BME280;38381;53.688;10.776;2023-07-22T10:10:04;100894.03;;;19.08;59.86
52469;BME280;38381;53.688;10.776;2023-07-22T10:15:06;100901.13;;;19.38;58.31
52469;BME280;38381;53.688;10.776;2023-07-22T10:20:13;100893.84;;;19.47;54.90
52469;BME280;38381;53.688;10.776;2023-07-22T10:25:22;100896.81;;;19.35;54.79
52469;BME280;38381;53.688;10.776;2023-07-22T10:30:23;100899.78;;;19.23;55.37
52469;BME280;38381;53.688;10.776;2023-07-22T10:40:30;100897.44;;;19.76;55.69
52469;BME280;38381;53.688;10.776;2023-07-22T10:45:39;100895.72;;;19.75;54.66
52469;BME280;38381;53.688;10.776;2023-07-22T10:50:47;100895.59;;;19.78;53.75
52469;BME280;38381;53.688;10.776;2023-07-22T11:01:31;100891.00;;;20.15;53.88
52469;BME280;38381;53.688;10.776;2023-07-22T11:06:32;100889.44;;;20.36;53.75
52469;BME280;38381;53.688;10.776;2023-07-22T11:11:44;100892.31;;;20.56;52.48
52469;BME280;38381;53.688;10.776;2023-07-22T11:16:46;100892.09;;;19.79;52.37
52469;BME280;38381;53.688;10.776;2023-07-22T11:21:48;100906.75;;;20.71;50.55
52469;BME280;38381;53.688;10.776;2023-07-22T11:26:49;100879.03;;;20.33;49.61
52469;BME280;38381;53.688;10.776;2023-07-22T11:31:51;100873.19;;;20.78;49.76
52469;BME280;38381;53.688;10.776;2023-07-22T11:36:53;100882.59;;;20.85;49.37
52469;BME280;38381;53.688;10.776;2023-07-22T11:41:54;100879.38;;;20.75;50.32
52469;BME280;38381;53.688;10.776;2023-07-22T11:47:00;100880.03;;;21.08;49.29
52469;BME280;38381;53.688;10.776;2023-07-22T11:52:05;100877.91;;;21.18;47.38
52469;BME280;38381;53.688;10.776;2023-07-22T11:57:14;100874.47;;;20.91;49.37
52469;BME280;38381;53.688;10.776;2023-07-22T12:02:23;100886.16;;;21.09;48.98
52469;BME280;38381;53.688;10.776;2023-07-22T12:07:32;100874.84;;;19.97;50.25
52469;BME280;38381;53.688;10.776;2023-07-22T12:12:36;100873.59;;;20.37;50.81
52469;BME280;38381;53.688;10.776;2023-07-22T12:17:48;100884.03;;;20.68;48.51
52469;BME280;38381;53.688;10.776;2023-07-22T12:22:49;100873.59;;;20.65;48.88
52469;BME280;38381;53.688;10.776;2023-07-22T12:27:49;100851.72;;;20.88;47.45
52469;BME280;38381;53.688;10.776;2023-07-22T12:32:52;100853.47;;;21.13;47.79
52469;BME280;38381;53.688;10.776;2023-07-22T12:37:53;100838.59;;;21.59;47.25
52469;BME280;38381;53.688;10.776;2023-07-22T12:42:53;100853.84;;;21.27;46.37
52469;BME280;38381;53.688;10.776;2023-07-22T12:47:54;100848.16;;;21.38;46.82
52469;BME280;38381;53.688;10.776;2023-07-22T12:52:54;100843.63;;;21.42;46.99
52469;BME280;38381;53.688;10.776;2023-07-22T12:57:54;100848.91;;;21.43;46.75
52469;BME280;38381;53.688;10.776;2023-07-22T13:02:55;100837.78;;;21.34;47.28
52469;BME280;38381;53.688;10.776;2023-07-22T13:07:57;100844.94;;;21.30;47.13
52469;BME280;38381;53.688;10.776;2023-07-22T13:13:01;100845.69;;;21.34;47.97
52469;BME280;38381;53.688;10.776;2023-07-22T13:18:01;100848.97;;;21.17;47.52
52469;BME280;38381;53.688;10.776;2023-07-22T13:23:02;100858.66;;;20.91;47.64
52469;BME280;38381;53.688;10.776;2023-07-22T13:28:03;100848.88;;;21.18;48.28
52469;BME280;38381;53.688;10.776;2023-07-22T13:33:03;100850.72;;;20.91;47.78
52469;BME280;38381;53.688;10.776;2023-07-22T13:38:04;100855.63;;;21.02;48.96
52469;BME280;38381;53.688;10.776;2023-07-22T13:43:04;100869.19;;;20.91;52.20
52469;BME280;38381;53.688;10.776;2023-07-22T13:48:05;100880.47;;;20.43;54.83
52469;BME280;38381;53.688;10.776;2023-07-22T13:53:05;100903.19;;;19.89;57.60
52469;BME280;38381;53.688;10.776;2023-07-22T13:58:06;100905.19;;;19.49;60.91
52469;BME280;38381;53.688;10.776;2023-07-22T14:03:06;100908.44;;;19.26;63.10
52469;BME280;38381;53.688;10.776;2023-07-22T14:08:06;100910.75;;;19.06;63.88
52469;BME280;38381;53.688;10.776;2023-07-22T14:13:07;100915.81;;;18.78;67.12
52469;BME280;38381;53.688;10.776;2023-07-22T14:18:07;100912.03;;;18.91;67.44
52469;BME280;38381;53.688;10.776;2023-07-22T14:23:08;100904.47;;;18.76;68.37
52469;BME280;38381;53.688;10.776;2023-07-22T14:28:08;100906.25;;;18.75;69.23
52469;BME280;38381;53.688;10.776;2023-07-22T14:33:09;100906.66;;;18.94;69.19
52469;BME280;38381;53.688;10.776;2023-07-22T14:38:09;100908.56;;;18.89;69.34
52469;BME280;38381;53.688;10.776;2023-07-22T14:43:10;100920.88;;;18.87;69.67
52469;BME280;38381;53.688;10.776;2023-07-22T14:48:10;100914.00;;;18.81;70.81
52469;BME280;38381;53.688;10.776;2023-07-22T14:53:11;100899.31;;;18.73;70.60
52469;BME280;38381;53.688;10.776;2023-07-22T14:58:11;100894.16;;;18.68;70.94
52469;BME280;38381;53.688;10.776;2023-07-22T15:03:12;100890.81;;;18.63;70.93
52469;BME280;38381;53.688;10.776;2023-07-22T15:08:12;100882.66;;;18.72;70.56
52469;BME280;38381;53.688;10.776;2023-07-22T15:13:13;100867.13;;;18.64;71.33
52469;BME280;38381;53.688;10.776;2023-07-22T15:18:13;100874.78;;;18.72;71.73
52469;BME280;38381;53.688;10.776;2023-07-22T15:23:13;100869.59;;;18.70;71.54
52469;BME280;38381;53.688;10.776;2023-07-22T15:28:14;100872.97;;;18.74;71.09
52469;BME280;38381;53.688;10.776;2023-07-22T15:33:15;100862.44;;;18.76;70.89
52469;BME280;38381;53.688;10.776;2023-07-22T15:38:15;100860.75;;;18.73;70.41
52469;BME280;38381;53.688;10.776;2023-07-22T15:43:15;100858.88;;;18.80;70.47
52469;BME280;38381;53.688;10.776;2023-07-22T15:48:17;100864.34;;;18.70;71.09
52469;BME280;38381;53.688;10.776;2023-07-22T15:53:17;100857.16;;;18.77;71.14
52469;BME280;38381;53.688;10.776;2023-07-22T15:58:18;100860.63;;;18.78;71.30
52469;BME280;38381;53.688;10.776;2023-07-22T16:03:20;100848.44;;;18.75;70.76
52469;BME280;38381;53.688;10.776;2023-07-22T16:08:20;100847.84;;;18.64;70.95
52469;BME280;38381;53.688;10.776;2023-07-22T16:13:21;100848.69;;;18.66;71.49
52469;BME280;38381;53.688;10.776;2023-07-22T16:18:21;100848.69;;;18.66;71.73
52469;BME280;38381;53.688;10.776;2023-07-22T16:23:21;100846.09;;;18.64;71.90
52469;BME280;38381;53.688;10.776;2023-07-22T16:28:22;100835.69;;;18.60;72.29
52469;BME280;38381;53.688;10.776;2023-07-22T16:33:22;100841.94;;;18.56;72.90
52469;BME280;38381;53.688;10.776;2023-07-22T16:38:23;100837.72;;;18.50;73.27
52469;BME280;38381;53.688;10.776;2023-07-22T16:43:23;100831.59;;;18.49;73.11
52469;BME280;38381;53.688;10.776;2023-07-22T16:48:24;100826.75;;;17.97;75.47
52469;BME280;38381;53.688;10.776;2023-07-22T16:53:24;100823.34;;;17.92;76.28
52469;BME280;38381;53.688;10.776;2023-07-22T16:58:24;100821.78;;;17.84;77.63
52469;BME280;38381;53.688;10.776;2023-07-22T17:03:25;100815.47;;;17.92;76.77
52469;BME280;38381;53.688;10.776;2023-07-22T17:08:25;100816.56;;;17.81;77.42
52469;BME280;38381;53.688;10.776;2023-07-22T17:13:26;100811.09;;;17.92;77.20
52469;BME280;38381;53.688;10.776;2023-07-22T17:18:26;100810.47;;;17.79;77.74
52469;BME280;38381;53.688;10.776;2023-07-22T17:23:26;100818.88;;;17.97;77.40
52469;BME280;38381;53.688;10.776;2023-07-22T17:28:27;100819.59;;;17.63;80.94
52469;BME280;38381;53.688;10.776;2023-07-22T17:33:27;100819.63;;;17.61;82.56
52469;BME280;38381;53.688;10.776;2023-07-22T17:38:28;100824.03;;;17.59;83.17
52469;BME280;38381;53.688;10.776;2023-07-22T17:43:28;100821.06;;;17.34;84.17
52469;BME280;38381;53.688;10.776;2023-07-22T17:48:29;100817.00;;;17.21;84.51
52469;BME280;38381;53.688;10.776;2023-07-22T17:53:29;100802.22;;;17.17;83.29
52469;BME280;38381;53.688;10.776;2023-07-22T17:58:29;100809.00;;;16.82;84.22
52469;BME280;38381;53.688;10.776;2023-07-22T18:03:30;100806.19;;;16.91;83.38
52469;BME280;38381;53.688;10.776;2023-07-22T18:08:30;100803.78;;;16.82;83.83
52469;BME280;38381;53.688;10.776;2023-07-22T18:13:31;100807.34;;;16.75;84.35
52469;BME280;38381;53.688;10.776;2023-07-22T18:18:31;100819.69;;;16.68;83.96
52469;BME280;38381;53.688;10.776;2023-07-22T18:23:32;100822.97;;;16.29;84.53
52469;BME280;38381;53.688;10.776;2023-07-22T18:28:32;100812.69;;;16.16;85.01
52469;BME280;38381;53.688;10.776;2023-07-22T18:33:33;100819.66;;;16.18;85.70
52469;BME280;38381;53.688;10.776;2023-07-22T18:38:33;100818.84;;;16.13;86.07
52469;BME280;38381;53.688;10.776;2023-07-22T18:43:34;100827.91;;;15.91;87.12
52469;BME280;38381;53.688;10.776;2023-07-22T18:48:34;100814.72;;;16.00;86.89
52469;BME280;38381;53.688;10.776;2023-07-22T18:53:38;100807.97;;;15.83;87.51
52469;BME280;38381;53.688;10.776;2023-07-22T18:58:39;100818.69;;;15.62;89.28
52469;BME280;38381;53.688;10.776;2023-07-22T19:03:40;100804.94;;;15.47;89.97
52469;BME280;38381;53.688;10.776;2023-07-22T19:08:40;100818.94;;;15.42;89.76
52469;BME280;38381;53.688;10.776;2023-07-22T19:13:41;100821.19;;;15.71;87.79
52469;BME280;38381;53.688;10.776;2023-07-22T19:18:41;100817.06;;;15.55;87.92
52469;BME280;38381;53.688;10.776;2023-07-22T19:23:42;100801.78;;;15.24;89.80
52469;BME280;38381;53.688;10.776;2023-07-22T19:28:42;100802.50;;;15.34;90.28
52469;BME280;38381;53.688;10.776;2023-07-22T19:33:43;100816.47;;;15.33;90.10
52469;BME280;38381;53.688;10.776;2023-07-22T19:38:43;100817.31;;;15.32;90.13
52469;BME280;38381;53.688;10.776;2023-07-22T19:43:44;100813.84;;;15.31;90.43
52469;BME280;38381;53.688;10.776;2023-07-22T19:48:45;100820.41;;;14.93;92.52
52469;BME280;38381;53.688;10.776;2023-07-22T19:53:45;100818.59;;;14.97;92.05
52469;BME280;38381;53.688;10.776;2023-07-22T19:58:49;100810.75;;;14.98;92.33
52469;BME280;38381;53.688;10.776;2023-07-22T20:03:52;100814.22;;;15.00;91.81
52469;BME280;38381;53.688;10.776;2023-07-22T20:08:53;100802.09;;;14.95;91.16
52469;BME280;38381;53.688;10.776;2023-07-22T20:13:53;100796.25;;;14.69;93.35
52469;BME280;38381;53.688;10.776;2023-07-22T20:18:54;100797.03;;;14.81;92.69
52469;BME280;38381;53.688;10.776;2023-07-22T20:23:54;100806.72;;;14.68;93.27
52469;BME280;38381;53.688;10.776;2023-07-22T20:28:54;100791.94;;;14.67;93.67
52469;BME280;38381;53.688;10.776;2023-07-22T20:33:55;100799.59;;;14.84;92.92
52469;BME280;38381;53.688;10.776;2023-07-22T20:38:57;100793.63;;;14.71;92.76
52469;BME280;38381;53.688;10.776;2023-07-22T20:43:58;100793.53;;;14.80;92.62
52469;BME280;38381;53.688;10.776;2023-07-22T20:48:58;100804.66;;;14.99;91.73
52469;BME280;38381;53.688;10.776;2023-07-22T20:53:59;100812.75;;;14.73;92.73
52469;BME280;38381;53.688;10.776;2023-07-22T20:59:00;100814.53;;;14.73;93.43
52469;BME280;38381;53.688;10.776;2023-07-22T21:04:01;100810.94;;;14.80;92.35
52469;BME280;38381;53.688;10.776;2023-07-22T21:09:02;100814.66;;;14.59;93.63
52469;BME280;38381;53.688;10.776;2023-07-22T21:14:03;100814.47;;;14.79;92.79
52469;BME280;38381;53.688;10.776;2023-07-22T21:19:03;100807.47;;;14.81;91.88
52469;BME280;38381;53.688;10.776;2023-07-22T21:24:04;100798.91;;;14.66;92.37
52469;BME280;38381;53.688;10.776;2023-07-22T21:29:04;100788.56;;;14.51;94.16
52469;BME280;38381;53.688;10.776;2023-07-22T21:34:05;100783.31;;;14.60;94.30
52469;BME280;38381;53.688;10.776;2023-07-22T21:39:05;100779.06;;;14.45;95.34
52469;BME280;38381;53.688;10.776;2023-07-22T21:44:06;100776.38;;;14.55;94.51
52469;BME280;38381;53.688;10.776;2023-07-22T21:49:06;100780.84;;;14.42;95.87
52469;BME280;38381;53.688;10.776;2023-07-22T21:54:07;100786.91;;;14.44;96.05
52469;BME280;38381;53.688;10.776;2023-07-22T21:59:07;100774.00;;;14.30;97.20
52469;BME280;38381;53.688;10.776;2023-07-22T22:04:09;100778.97;;;14.59;95.01
52469;BME280;38381;53.688;10.776;2023-07-22T22:09:09;100792.94;;;14.47;95.92
52469;BME280;38381;53.688;10.776;2023-07-22T22:14:10;100785.22;;;14.40;96.35
52469;BME280;38381;53.688;10.776;2023-07-22T22:19:11;100788.50;;;14.63;95.11
52469;BME280;38381;53.688;10.776;2023-07-22T22:24:11;100787.56;;;14.67;94.27
52469;BME280;38381;53.688;10.776;2023-07-22T22:29:11;100791.19;;;14.49;95.26
52469;BME280;38381;53.688;10.776;2023-07-22T22:34:12;100783.53;;;14.33;96.55
52469;BME280;38381;53.688;10.776;2023-07-22T22:39:12;100777.50;;;14.27;97.27
52469;BME280;38381;53.688;10.776;2023-07-22T22:44:13;100785.22;;;14.37;96.60
52469;BME280;38381;53.688;10.776;2023-07-22T22:49:13;100781.78;;;14.33;96.71
52469;BME280;38381;53.688;10.776;2023-07-22T22:54:13;100773.81;;;14.50;95.57
52469;BME280;38381;53.688;10.776;2023-07-22T22:59:14;100778.19;;;14.45;94.95
52469;BME280;38381;53.688;10.776;2023-07-22T23:04:14;100776.59;;;14.28;96.13
52469;BME280;38381;53.688;10.776;2023-07-22T23:09:15;100785.09;;;14.52;94.49
52469;BME280;38381;53.688;10.776;2023-07-22T23:14:15;100789.47;;;14.47;94.57
52469;BME280;38381;53.688;10.776;2023-07-22T23:19:15;100782.41;;;14.63;93.76
52469;BME280;38381;53.688;10.776;2023-07-22T23:24:16;100779.16;;;14.33;95.50
52469;BME280;38381;53.688;10.776;2023-07-22T23:29:16;100769.56;;;14.37;95.22
52469;BME280;38381;53.688;10.776;2023-07-22T23:34:17;100770.34;;;14.46;94.76
52469;BME280;38381;53.688;10.776;2023-07-22T23:39:17;100766.94;;;14.40;94.50
52469;BME280;38381;53.688;10.776;2023-07-22T23:44:17;100765.97;;;14.50;94.42
52469;BME280;38381;53.688;10.776;2023-07-22T23:49:18;100765.06;;;14.59;93.90
52469;BME280;38381;53.688;10.776;2023-07-22T23:54:18;100759.91;;;14.46;94.59
52469;BME280;38381;53.688;10.776;2023-07-22T23:59:19;100754.88;;;14.29;95.47
